createdAt,value
2023-03-07T00:00:27.577Z,60.40
2023-03-07T00:03:16.668Z,45.50
2023-03-07T00:05:44.825Z,49.50
2023-03-07T00:08:13.125Z,58.20
2023-03-07T00:10:41.042Z,32.50
2023-03-07T00:13:09.125Z,48.30
2023-03-07T00:15:38.946Z,44.30
2023-03-07T00:18:07.658Z,67.60
2023-03-07T00:20:35.749Z,50.00
2023-03-07T00:23:05.034Z,82.20
2023-03-07T00:25:32.900Z,55.20
2023-03-07T00:28:00.941Z,64.20
2023-03-07T00:30:28.811Z,63.70
2023-03-07T00:32:56.822Z,47.00
2023-03-07T00:35:24.808Z,42.80
2023-03-07T00:37:52.737Z,38.20
2023-03-07T00:40:20.657Z,37.30
2023-03-07T00:42:48.432Z,34.00
2023-03-07T00:45:16.486Z,43.50
2023-03-07T00:47:44.522Z,41.40
2023-03-07T00:50:13.661Z,59.90
2023-03-07T00:52:41.653Z,49.70
2023-03-07T00:55:09.978Z,30.20
2023-03-07T00:57:37.882Z,39.50
2023-03-07T01:00:06.460Z,40.90
2023-03-07T01:02:34.676Z,45.30
2023-03-07T01:05:02.601Z,35.80
2023-03-07T01:07:30.680Z,43.50
2023-03-07T01:09:58.640Z,42.20
2023-03-07T01:12:26.538Z,40.50
2023-03-07T01:14:54.838Z,46.80
2023-03-07T01:17:22.861Z,48.20
2023-03-07T01:19:50.757Z,53.80
2023-03-07T01:22:18.713Z,52.30
2023-03-07T01:24:47.337Z,58.70
2023-03-07T01:27:15.669Z,42.50
2023-03-07T01:29:43.807Z,38.70
2023-03-07T01:32:12.367Z,36.50
2023-03-07T01:34:40.286Z,34.40
2023-03-07T01:37:08.244Z,34.40
2023-03-07T01:39:36.852Z,35.40
2023-03-07T01:42:08.056Z,34.20
2023-03-07T01:45:06.906Z,33.30
2023-03-07T01:47:43.645Z,32.80
2023-03-07T01:50:17.730Z,32.80
2023-03-07T01:52:53.662Z,30.80
2023-03-07T01:55:34.134Z,47.10
2023-03-07T01:58:13.924Z,31.10
2023-03-07T02:00:44.255Z,31.30
2023-03-07T02:03:26.297Z,30.10
2023-03-07T02:05:58.696Z,30.30
2023-03-07T02:08:30.292Z,27.50
2023-03-07T02:10:58.365Z,36.00
2023-03-07T02:13:26.506Z,33.80
2023-03-07T02:15:55.117Z,33.80
2023-03-07T02:18:30.296Z,28.40
2023-03-07T02:21:12.386Z,32.40
2023-03-07T02:23:52.523Z,30.60
2023-03-07T02:26:43.687Z,31.10
2023-03-07T02:29:13.502Z,29.70
2023-03-07T02:31:42.685Z,30.20
2023-03-07T02:34:20.175Z,31.20
2023-03-07T02:36:53.258Z,27.70
2023-03-07T02:39:26.305Z,28.00
2023-03-07T02:41:56.594Z,29.40
2023-03-07T02:44:31.154Z,29.60
2023-03-07T02:46:59.068Z,31.00
2023-03-07T02:49:27.790Z,31.20
2023-03-07T02:52:00.612Z,30.90
2023-03-07T02:54:29.243Z,29.10
2023-03-07T02:56:57.746Z,31.10
2023-03-07T02:59:26.282Z,30.20
2023-03-07T03:01:54.508Z,29.30
2023-03-07T03:04:22.542Z,26.10
2023-03-07T03:06:50.641Z,23.00
2023-03-07T03:09:18.533Z,24.00
2023-03-07T03:11:47.130Z,20.30
2023-03-07T03:14:15.634Z,17.70
2023-03-07T03:16:43.592Z,18.90
2023-03-07T03:19:11.579Z,18.10
2023-03-07T03:21:39.516Z,18.70
2023-03-07T03:24:08.632Z,17.30
2023-03-07T03:26:37.839Z,17.00
2023-03-07T03:29:05.730Z,18.20
2023-03-07T03:31:35.133Z,18.90
2023-03-07T03:34:05.745Z,18.40
2023-03-07T03:36:34.530Z,19.90
2023-03-07T03:39:11.039Z,18.50
2023-03-07T03:41:43.247Z,17.20
2023-03-07T03:44:11.500Z,18.50
2023-03-07T03:46:39.554Z,18.90
2023-03-07T03:49:07.644Z,20.60
2023-03-07T03:51:36.282Z,19.10
2023-03-07T03:54:05.014Z,17.80
2023-03-07T03:56:33.034Z,17.50
2023-03-07T03:59:00.927Z,16.30
2023-03-07T04:01:29.551Z,15.70
2023-03-07T04:03:58.564Z,16.00
2023-03-07T04:06:29.466Z,15.00
2023-03-07T04:08:58.179Z,15.10
2023-03-07T04:11:26.895Z,14.30
2023-03-07T04:13:55.143Z,14.50
2023-03-07T04:16:24.232Z,14.30
2023-03-07T04:18:52.787Z,14.80
2023-03-07T04:21:21.953Z,13.90
2023-03-07T04:23:55.550Z,15.60
2023-03-07T04:26:24.743Z,15.60
2023-03-07T04:28:52.970Z,15.00
2023-03-07T04:31:26.984Z,15.40
2023-03-07T04:33:56.715Z,14.70
2023-03-07T04:36:25.600Z,16.10
2023-03-07T04:38:53.891Z,14.80
2023-03-07T04:41:26.265Z,16.70
2023-03-07T04:44:04.151Z,17.30
2023-03-07T04:46:32.256Z,16.90
2023-03-07T04:49:00.313Z,17.10
2023-03-07T04:51:28.774Z,16.30
2023-03-07T04:53:56.788Z,15.10
2023-03-07T04:56:24.711Z,15.00
2023-03-07T04:58:52.796Z,15.80
2023-03-07T05:01:20.693Z,16.00
2023-03-07T05:03:49.432Z,16.60
2023-03-07T05:06:19.357Z,16.50
2023-03-07T05:08:50.527Z,15.10
2023-03-07T05:11:18.979Z,16.00
2023-03-07T05:13:47.040Z,16.30
2023-03-07T05:16:18.500Z,16.50
2023-03-07T05:18:46.750Z,17.40
2023-03-07T05:21:14.753Z,16.00
2023-03-07T05:23:42.763Z,17.60
2023-03-07T05:26:12.362Z,17.80
2023-03-07T05:28:40.492Z,17.00
2023-03-07T05:31:09.118Z,18.50
2023-03-07T05:33:37.185Z,20.90
2023-03-07T05:36:05.680Z,17.80
2023-03-07T05:38:34.455Z,18.50
2023-03-07T05:41:02.332Z,18.40
2023-03-07T05:43:30.164Z,17.80
2023-03-07T05:45:58.402Z,19.00
2023-03-07T05:48:26.604Z,18.90
2023-03-07T05:50:54.518Z,18.00
2023-03-07T05:53:23.282Z,17.50
2023-03-07T05:55:51.790Z,19.00
2023-03-07T05:58:20.033Z,18.20
2023-03-07T06:00:49.624Z,21.20
2023-03-07T06:03:17.986Z,19.90
2023-03-07T06:05:49.745Z,19.10
2023-03-07T06:08:17.788Z,18.70
2023-03-07T06:10:50.069Z,23.70
2023-03-07T06:13:22.287Z,23.30
2023-03-07T06:15:54.891Z,21.80
2023-03-07T06:18:25.107Z,21.90
2023-03-07T06:21:01.504Z,19.90
2023-03-07T06:23:34.320Z,24.40
2023-03-07T06:26:04.206Z,22.70
2023-03-07T06:28:33.113Z,23.20
2023-03-07T06:31:08.590Z,25.60
2023-03-07T06:33:36.620Z,26.40
2023-03-07T06:36:10.231Z,25.50
2023-03-07T06:38:39.120Z,25.90
2023-03-07T06:41:07.668Z,26.80
2023-03-07T06:43:36.163Z,28.30
2023-03-07T06:46:05.951Z,26.00
2023-03-07T06:48:36.167Z,27.20
2023-03-07T06:51:07.828Z,30.50
2023-03-07T06:53:36.493Z,27.40
2023-03-07T06:56:04.916Z,29.10
2023-03-07T06:58:33.617Z,30.90
2023-03-07T07:01:02.141Z,32.70
2023-03-07T07:03:30.988Z,28.10
2023-03-07T07:05:58.896Z,45.10
2023-03-07T07:08:26.724Z,39.20
2023-03-07T07:10:59.576Z,35.10
2023-03-07T07:13:28.144Z,30.10
2023-03-07T07:15:56.014Z,30.50
2023-03-07T07:18:25.017Z,28.40
2023-03-07T07:20:56.273Z,29.50
2023-03-07T07:23:25.194Z,30.80
2023-03-07T07:25:53.450Z,25.30
2023-03-07T07:28:21.536Z,36.90
2023-03-07T07:30:49.535Z,29.40
2023-03-07T07:33:17.748Z,44.90
2023-03-07T07:35:48.296Z,45.20
2023-03-07T07:38:16.510Z,37.80
2023-03-07T07:40:45.281Z,76.90
2023-03-07T07:43:16.035Z,47.40
2023-03-07T07:45:50.573Z,39.50
2023-03-07T07:48:21.123Z,67.60
2023-03-07T07:50:49.398Z,45.70
2023-03-07T07:53:18.700Z,93.00
2023-03-07T07:55:48.988Z,51.90
2023-03-07T07:58:17.374Z,52.60
2023-03-07T08:00:46.240Z,49.20
2023-03-07T08:03:14.198Z,78.90
2023-03-07T08:05:51.081Z,121.20
2023-03-07T08:08:19.996Z,90.60
2023-03-07T08:10:49.035Z,111.60
2023-03-07T08:13:17.982Z,63.00
2023-03-07T08:15:46.119Z,43.80
2023-03-07T08:18:14.273Z,105.30
2023-03-07T08:20:42.206Z,54.30
2023-03-07T08:23:10.188Z,78.80
2023-03-07T08:25:38.492Z,60.70
2023-03-07T08:28:06.447Z,70.60
2023-03-07T08:30:37.027Z,69.40
2023-03-07T08:33:04.971Z,57.60
2023-03-07T08:35:32.900Z,118.20
2023-03-07T08:38:01.318Z,59.90
2023-03-07T08:40:30.878Z,57.40
2023-03-07T08:42:59.788Z,128.00
2023-03-07T08:45:27.866Z,92.20
2023-03-07T08:47:56.815Z,73.30
2023-03-07T08:50:27.531Z,58.40
2023-03-07T08:52:55.587Z,62.30
2023-03-07T08:55:23.619Z,98.70
2023-03-07T08:57:51.645Z,75.20
2023-03-07T09:00:19.933Z,49.90
2023-03-07T09:02:47.827Z,90.50
2023-03-07T09:05:15.837Z,78.00
2023-03-07T09:07:44.462Z,53.70
2023-03-07T09:10:12.390Z,44.80
2023-03-07T09:12:40.362Z,37.80
2023-03-07T09:15:09.158Z,34.00
2023-03-07T09:17:37.180Z,31.10
2023-03-07T09:20:07.464Z,28.50
2023-03-07T09:22:35.795Z,29.50
2023-03-07T09:25:04.741Z,39.40
2023-03-07T09:27:32.605Z,34.40
2023-03-07T09:30:00.568Z,32.30
2023-03-07T09:32:28.584Z,33.20
2023-03-07T09:34:57.065Z,31.10
2023-03-07T09:37:25.124Z,32.50
2023-03-07T09:39:52.939Z,24.80
2023-03-07T09:42:34.912Z,31.00
2023-03-07T09:45:42.601Z,35.70
2023-03-07T09:48:51.513Z,28.40
2023-03-07T09:51:30.942Z,29.60
2023-03-07T09:54:03.149Z,27.60
2023-03-07T09:56:40.890Z,31.90
2023-03-07T09:59:26.467Z,28.30
2023-03-07T10:02:21.816Z,35.50
2023-03-07T10:07:26.988Z,39.90
2023-03-07T10:09:59.965Z,44.50
2023-03-07T10:12:46.838Z,36.80
2023-03-07T10:15:17.867Z,37.10
2023-03-07T10:18:26.081Z,40.30
2023-03-07T10:21:14.598Z,48.80
2023-03-07T10:24:00.857Z,35.30
2023-03-07T10:26:44.495Z,42.90
2023-03-07T10:29:17.906Z,37.80
2023-03-07T10:31:49.135Z,44.40
2023-03-07T10:34:28.163Z,36.40
2023-03-07T10:37:18.884Z,48.10
2023-03-07T10:39:55.071Z,41.50
2023-03-07T10:44:52.457Z,42.30
2023-03-07T10:47:22.278Z,31.10
2023-03-07T10:49:55.042Z,30.20
2023-03-07T10:52:40.189Z,35.90
2023-03-07T10:55:31.772Z,31.30
2023-03-07T10:58:19.884Z,32.20
2023-03-07T11:01:06.426Z,47.60
2023-03-07T11:03:55.851Z,90.50
2023-03-07T11:06:28.025Z,69.20
2023-03-07T11:08:56.304Z,55.70
2023-03-07T11:11:26.866Z,52.10
2023-03-07T11:14:14.594Z,35.00
2023-03-07T11:16:51.216Z,55.70
2023-03-07T11:19:43.716Z,38.20
2023-03-07T11:22:34.259Z,47.00
2023-03-07T11:25:26.586Z,45.30
2023-03-07T11:27:57.169Z,38.30
2023-03-07T11:30:41.099Z,32.20
2023-03-07T11:33:23.147Z,36.70
2023-03-07T11:35:51.080Z,46.90
2023-03-07T11:38:24.550Z,51.40
2023-03-07T11:41:05.352Z,37.70
2023-03-07T11:43:46.503Z,45.70
2023-03-07T11:46:26.846Z,36.30
2023-03-07T11:49:22.991Z,34.10
2023-03-07T11:52:07.642Z,37.20
2023-03-07T11:55:00.615Z,31.80
2023-03-07T11:58:14.982Z,29.70
2023-03-07T12:01:01.204Z,20.60
2023-03-07T12:03:41.137Z,31.80
2023-03-07T12:06:59.776Z,34.30
2023-03-07T12:09:46.360Z,46.60
2023-03-07T12:12:19.969Z,35.30
2023-03-07T12:15:15.906Z,30.70
2023-03-07T12:18:12.372Z,30.30
2023-03-07T12:20:46.208Z,51.50
2023-03-07T12:23:26.016Z,33.00
2023-03-07T12:25:53.908Z,66.40
2023-03-07T12:28:21.736Z,36.90
2023-03-07T12:30:53.023Z,38.20
2023-03-07T12:33:40.296Z,35.50
2023-03-07T12:36:17.787Z,33.70
2023-03-07T12:38:58.646Z,31.30
2023-03-07T12:41:52.197Z,27.70
2023-03-07T12:44:36.586Z,33.50
2023-03-07T12:47:26.114Z,29.90
2023-03-07T12:50:00.428Z,26.70
2023-03-07T12:52:36.497Z,26.40
2023-03-07T12:55:20.621Z,25.50
2023-03-07T12:58:07.869Z,32.90
2023-03-07T13:00:41.317Z,30.80
2023-03-07T13:03:15.601Z,27.90
2023-03-07T13:05:44.215Z,30.10
2023-03-07T13:08:20.578Z,27.40
2023-03-07T13:10:49.105Z,27.90
2023-03-07T13:13:42.256Z,26.00
2023-03-07T13:16:31.366Z,25.60
2023-03-07T13:19:37.252Z,27.10
2023-03-07T13:22:14.359Z,27.60
2023-03-07T13:24:47.604Z,26.80
2023-03-07T13:27:20.964Z,24.90
2023-03-07T13:30:12.538Z,28.90
2023-03-07T13:32:56.007Z,33.90
2023-03-07T13:35:39.301Z,34.20
2023-03-07T13:38:28.776Z,36.20
2023-03-07T13:41:00.410Z,29.80
2023-03-07T13:43:28.621Z,27.70
2023-03-07T13:46:01.974Z,26.90
2023-03-07T13:48:30.103Z,37.20
2023-03-07T13:51:01.189Z,31.50
2023-03-07T13:53:34.768Z,25.80
2023-03-07T13:56:20.209Z,22.80
2023-03-07T13:59:21.587Z,24.50
2023-03-07T14:01:57.034Z,35.70
2023-03-07T14:04:41.215Z,36.50
2023-03-07T14:07:22.731Z,31.20
2023-03-07T14:10:09.798Z,27.20
2023-03-07T14:13:05.452Z,30.60
2023-03-07T14:15:47.575Z,37.60
2023-03-07T14:18:20.758Z,22.20
2023-03-07T14:21:21.588Z,23.70
2023-03-07T14:24:02.995Z,34.20
2023-03-07T14:26:48.936Z,37.80
2023-03-07T14:31:54.267Z,30.00
2023-03-07T14:34:22.128Z,37.90
2023-03-07T14:36:52.575Z,41.40
2023-03-07T14:39:22.040Z,42.60
2023-03-07T14:42:22.393Z,91.20
2023-03-07T14:44:56.358Z,65.00
2023-03-07T14:47:42.813Z,49.60
2023-03-07T14:50:32.023Z,59.10
2023-03-07T14:53:13.779Z,40.40
2023-03-07T14:55:44.953Z,54.30
2023-03-07T14:58:25.705Z,44.70
2023-03-07T15:01:04.508Z,44.60
2023-03-07T15:03:33.585Z,32.80
2023-03-07T15:06:03.544Z,33.40
2023-03-07T15:08:40.907Z,33.00
2023-03-07T15:11:33.444Z,31.60
2023-03-07T15:14:18.562Z,31.80
2023-03-07T15:16:58.444Z,22.80
2023-03-07T15:19:32.449Z,36.80
2023-03-07T15:22:03.798Z,37.10
2023-03-07T15:24:38.437Z,41.10
2023-03-07T15:27:10.586Z,34.00
2023-03-07T15:29:48.291Z,41.60
2023-03-07T15:32:39.516Z,47.30
2023-03-07T15:35:07.695Z,47.30
2023-03-07T15:37:51.115Z,39.70
2023-03-07T15:40:32.465Z,37.80
2023-03-07T15:43:04.492Z,34.30
2023-03-07T15:45:38.793Z,35.80
2023-03-07T15:48:31.596Z,29.70
2023-03-07T15:51:03.386Z,33.50
2023-03-07T15:53:36.262Z,29.30
2023-03-07T15:56:08.161Z,34.30
2023-03-07T15:58:42.553Z,37.30
2023-03-07T16:01:16.896Z,38.20
2023-03-07T16:04:09.399Z,39.80
2023-03-07T16:06:45.393Z,36.40
2023-03-07T16:09:18.489Z,38.30
2023-03-07T16:11:47.355Z,26.60
2023-03-07T16:14:26.489Z,36.10
2023-03-07T16:17:12.702Z,26.40
2023-03-07T16:19:40.754Z,31.10
2023-03-07T16:22:16.820Z,22.50
2023-03-07T16:27:16.462Z,24.80
2023-03-07T16:29:45.255Z,33.00
2023-03-07T16:32:15.701Z,32.70
2023-03-07T16:34:44.544Z,26.50
2023-03-07T16:37:13.532Z,37.30
2023-03-07T16:39:41.640Z,256.60
2023-03-07T16:42:27.627Z,79.00
2023-03-07T16:44:55.590Z,50.90
2023-03-07T16:47:23.573Z,37.60
2023-03-07T16:49:51.605Z,45.50
2023-03-07T16:52:19.987Z,36.10
2023-03-07T16:54:48.422Z,33.00
2023-03-07T16:57:17.219Z,26.70
2023-03-07T16:59:47.168Z,5.80
2023-03-07T17:02:21.147Z,9.20
2023-03-07T17:04:49.234Z,10.10
2023-03-07T17:07:20.281Z,9.30
2023-03-07T17:09:48.981Z,19.60
2023-03-07T17:12:20.634Z,20.00
2023-03-07T17:14:48.564Z,20.60
2023-03-07T17:17:30.639Z,18.40
2023-03-07T17:19:58.993Z,20.50
2023-03-07T17:22:26.995Z,31.70
2023-03-07T17:24:55.118Z,42.40
2023-03-07T17:27:23.302Z,50.90
2023-03-07T17:29:54.606Z,48.80
2023-03-07T17:32:22.797Z,47.40
2023-03-07T17:34:50.829Z,67.50
2023-03-07T17:37:18.910Z,59.50
2023-03-07T17:39:48.444Z,43.50
2023-03-07T17:42:16.477Z,19.40
2023-03-07T17:44:44.306Z,137.50
2023-03-07T17:47:12.189Z,101.80
2023-03-07T17:49:40.316Z,52.00
2023-03-07T17:52:08.254Z,51.50
2023-03-07T17:54:36.343Z,85.20
2023-03-07T17:57:04.488Z,64.60
2023-03-07T17:59:33.153Z,50.50
2023-03-07T18:02:01.321Z,128.50
2023-03-07T18:04:31.380Z,88.80
2023-03-07T18:07:00.303Z,222.50
2023-03-07T18:09:28.686Z,94.90
2023-03-07T18:11:56.939Z,252.90
2023-03-07T18:14:25.487Z,82.50
2023-03-07T18:16:53.812Z,121.80
2023-03-07T18:19:26.692Z,373.30
2023-03-07T18:21:55.522Z,292.20
2023-03-07T18:24:26.615Z,228.60
2023-03-07T18:26:55.990Z,173.00
2023-03-07T18:29:23.929Z,102.50
2023-03-07T18:31:52.548Z,107.40
2023-03-07T18:34:20.919Z,166.10
2023-03-07T18:36:51.757Z,98.30
2023-03-07T18:39:23.987Z,198.90
2023-03-07T18:41:52.131Z,184.50
2023-03-07T18:44:20.486Z,157.00
2023-03-07T18:46:48.646Z,82.30
2023-03-07T18:49:16.734Z,182.70
2023-03-07T18:51:46.210Z,126.40
2023-03-07T18:54:14.206Z,110.40
2023-03-07T18:56:45.951Z,148.50
2023-03-07T18:59:14.579Z,151.60
2023-03-07T19:01:42.647Z,102.40
2023-03-07T19:04:11.851Z,75.30
2023-03-07T19:06:42.276Z,72.60
2023-03-07T19:09:20.520Z,165.80
2023-03-07T19:11:48.443Z,154.90
2023-03-07T19:14:16.524Z,222.60
2023-03-07T19:16:45.315Z,268.40
2023-03-07T19:19:13.563Z,81.10
2023-03-07T19:21:41.560Z,109.80
2023-03-07T19:24:11.935Z,194.80
2023-03-07T19:26:41.744Z,106.90
2023-03-07T19:29:12.189Z,86.70
2023-03-07T19:31:43.886Z,200.70
2023-03-07T19:34:12.202Z,260.60
2023-03-07T19:36:41.710Z,142.90
2023-03-07T19:39:15.149Z,88.20
2023-03-07T19:41:45.459Z,143.90
2023-03-07T19:44:14.380Z,59.80
2023-03-07T19:46:46.378Z,48.60
2023-03-07T19:49:15.807Z,115.70
2023-03-07T19:51:43.773Z,110.50
2023-03-07T19:54:15.222Z,94.20
2023-03-07T19:56:45.162Z,118.10
2023-03-07T19:59:13.601Z,76.80
2023-03-07T20:01:41.584Z,46.80
2023-03-07T20:04:12.353Z,100.30
2023-03-07T20:06:42.998Z,96.90
2023-03-07T20:09:12.978Z,67.20
2023-03-07T20:11:43.360Z,61.90
2023-03-07T20:14:12.262Z,80.20
2023-03-07T20:16:40.809Z,41.70
2023-03-07T20:19:09.751Z,35.60
2023-03-07T20:21:38.208Z,64.20
2023-03-07T20:24:08.004Z,53.10
2023-03-07T20:26:38.266Z,41.10
2023-03-07T20:29:07.878Z,53.20
2023-03-07T20:31:39.454Z,46.80
2023-03-07T20:34:08.354Z,49.80
2023-03-07T20:36:37.966Z,58.10
2023-03-07T20:39:10.278Z,37.00
2023-03-07T20:41:38.191Z,63.10
2023-03-07T20:44:07.991Z,37.60
2023-03-07T20:46:38.664Z,32.80
2023-03-07T20:49:06.524Z,38.40
2023-03-07T20:51:36.373Z,21.80
2023-03-07T20:54:12.265Z,21.80
2023-03-07T20:56:41.391Z,28.30
2023-03-07T20:59:13.202Z,37.60
2023-03-07T21:01:42.241Z,25.20
2023-03-07T21:04:13.581Z,20.70
2023-03-07T21:06:43.261Z,20.20
2023-03-07T21:09:13.266Z,16.00
2023-03-07T21:11:46.970Z,14.50
2023-03-07T21:14:17.502Z,14.60
2023-03-07T21:16:45.548Z,13.50
2023-03-07T21:19:14.112Z,11.80
2023-03-07T21:21:42.705Z,16.50
2023-03-07T21:24:12.479Z,13.40
2023-03-07T21:26:40.584Z,13.90
2023-03-07T21:29:09.145Z,19.70
2023-03-07T21:31:38.802Z,12.60
2023-03-07T21:34:10.583Z,11.10
2023-03-07T21:36:38.545Z,12.20
2023-03-07T21:39:10.114Z,8.90
2023-03-07T21:41:38.343Z,6.40
2023-03-07T21:44:06.412Z,22.60
2023-03-07T21:46:34.599Z,9.70
2023-03-07T21:49:02.971Z,6.90
2023-03-07T21:51:30.921Z,7.60
2023-03-07T21:53:58.898Z,20.10
2023-03-07T21:56:26.851Z,8.20
2023-03-07T21:58:55.511Z,17.80
2023-03-07T22:01:26.509Z,9.10
2023-03-07T22:03:56.939Z,9.30
2023-03-07T22:06:25.810Z,6.80
2023-03-07T22:08:53.914Z,8.00
2023-03-07T22:11:22.474Z,9.30
2023-03-07T22:13:50.482Z,8.90
2023-03-07T22:16:20.751Z,11.10
2023-03-07T22:18:54.380Z,9.30
2023-03-07T22:21:25.133Z,7.90
2023-03-07T22:23:58.050Z,11.80
2023-03-07T22:26:28.152Z,13.80
2023-03-07T22:28:56.167Z,8.40
2023-03-07T22:31:25.123Z,7.80
2023-03-07T22:33:53.109Z,8.30
2023-03-07T22:36:21.268Z,5.80
2023-03-07T22:38:54.240Z,10.60
2023-03-07T22:41:23.564Z,12.80
2023-03-07T22:43:52.647Z,7.50
2023-03-07T22:46:21.471Z,10.70
2023-03-07T22:48:55.694Z,7.30
2023-03-07T22:51:25.185Z,5.50
2023-03-07T22:53:53.955Z,7.70
2023-03-07T22:56:24.924Z,10.70
2023-03-07T22:58:53.907Z,10.80
2023-03-07T23:01:24.305Z,7.30
2023-03-07T23:03:54.072Z,8.20
2023-03-07T23:06:24.255Z,11.00
2023-03-07T23:08:53.488Z,8.20
2023-03-07T23:11:23.377Z,7.70
2023-03-07T23:13:51.349Z,7.90
2023-03-07T23:16:21.968Z,7.00
2023-03-07T23:18:50.892Z,7.20
2023-03-07T23:48:02.455Z,6.40
2023-03-07T23:50:30.249Z,25.70
2023-03-07T23:52:58.406Z,13.70
2023-03-07T23:55:26.335Z,8.60
2023-03-07T23:57:54.250Z,7.80
